Time;durP1;ratioP1;P1;durP2;ratioP2;P2;SDS_P1;SDS_P2;PMS_P1;PMS_P2;Temp;Humidity;BMP_temperature;BMP_pressure;BME280_temperature;BME280_humidity;BME280_pressure;Samples;Min_cycle;Max_cycle;Signal;HPM_P1;HPM_P2
2023/06/27 00:01:07;;;;;;;6.03;1.60;;;;;;;;;;5033454;28;20163;-75
2023/06/27 00:03:33;;;;;;;3.60;1.80;;;;;;;;;;5033445;28;20139;-75
2023/06/27 00:06:04;;;;;;;2.80;1.70;;;;;;;;;;5034856;28;20038;-75
2023/06/27 00:08:33;;;;;;;3.33;1.88;;;;;;;;;;5034651;28;20488;-75
2023/06/27 00:10:59;;;;;;;4.47;1.67;;;;;;;;;;5034295;28;20049;-74
2023/06/27 00:13:25;;;;;;;2.78;1.55;;;;;;;;;;5032901;28;20061;-74
2023/06/27 00:15:54;;;;;;;3.38;1.30;;;;;;;;;;5033445;28;20052;-74
2023/06/27 00:18:23;;;;;;;3.47;1.00;;;;;;;;;;5034395;28;20124;-74
2023/06/27 00:20:50;;;;;;;4.32;1.52;;;;;;;;;;5033087;28;20424;-74
2023/06/27 00:23:21;;;;;;;2.63;1.52;;;;;;;;;;5034585;28;20045;-74
2023/06/27 00:25:47;;;;;;;3.13;1.27;;;;;;;;;;5032732;28;20061;-75
2023/06/27 00:28:13;;;;;;;6.22;2.20;;;;;;;;;;5032949;28;20049;-75
2023/06/27 00:30:40;;;;;;;3.97;2.20;;;;;;;;;;5033964;28;20397;-74
2023/06/27 00:33:06;;;;;;;2.80;2.00;;;;;;;;;;5033926;28;20142;-74
2023/06/27 00:35:32;;;;;;;3.10;1.90;;;;;;;;;;5033792;28;20038;-75
2023/06/27 00:38:05;;;;;;;4.82;2.00;;;;;;;;;;5033701;28;20053;-75
2023/06/27 00:40:31;;;;;;;2.20;1.60;;;;;;;;;;5032551;28;20064;-74
2023/06/27 00:42:57;;;;;;;5.15;1.90;;;;;;;;;;5034245;28;20052;-74
2023/06/27 00:45:23;;;;;;;5.03;2.13;;;;;;;;;;5034103;28;20380;-74
2023/06/27 00:47:53;;;;;;;2.75;1.73;;;;;;;;;;5032439;28;20128;-75
2023/06/27 00:50:21;;;;;;;2.55;1.50;;;;;;;;;;5033624;28;20085;-74
2023/06/27 00:52:47;;;;;;;2.65;1.95;;;;;;;;;;5033656;28;20099;-74
2023/06/27 00:55:13;;;;;;;4.82;2.08;;;;;;;;;;5034130;28;20045;-75
2023/06/27 00:57:40;;;;;;;3.15;1.90;;;;;;;;;;5033499;28;20132;-74
2023/06/27 01:00:10;;;;;;;6.38;1.75;;;;;;;;;;5033440;28;20055;-74
2023/06/27 01:02:36;;;;;;;3.80;1.88;;;;;;;;;;5032660;28;20437;-74
2023/06/27 01:05:03;;;;;;;2.17;1.90;;;;;;;;;;5032390;28;20045;-74
2023/06/27 01:07:35;;;;;;;2.25;1.55;;;;;;;;;;5032899;28;20053;-74
2023/06/27 01:10:05;;;;;;;5.55;1.95;;;;;;;;;;5033477;28;20427;-74
2023/06/27 01:12:37;;;;;;;3.08;2.00;;;;;;;;;;5032410;28;20049;-74
2023/06/27 01:15:04;;;;;;;2.13;1.73;;;;;;;;;;5033404;28;20111;-74
2023/06/27 01:17:32;;;;;;;4.13;2.10;;;;;;;;;;5033434;28;20045;-74
2023/06/27 01:19:59;;;;;;;3.88;2.17;;;;;;;;;;5032220;28;20054;-75
2023/06/27 01:22:40;;;;;;;3.08;2.10;;;;;;;;;;5033356;28;20179;-74
2023/06/27 01:25:07;;;;;;;4.03;2.22;;;;;;;;;;5032035;28;20208;-74
2023/06/27 01:27:34;;;;;;;3.72;2.30;;;;;;;;;;5032248;28;20049;-74
2023/06/27 01:30:00;;;;;;;6.72;2.50;;;;;;;;;;5032279;28;20046;-75
2023/06/27 01:32:39;;;;;;;2.83;2.55;;;;;;;;;;5033734;28;20081;-74
2023/06/27 01:35:41;;;;;;;4.45;2.88;;;;;;;;;;5032463;28;20049;-74
2023/06/27 01:38:10;;;;;;;4.38;2.65;;;;;;;;;;4994886;28;20481;-74
2023/06/27 01:40:37;;;;;;;5.10;3.10;;;;;;;;;;5025162;28;20400;-74
2023/06/27 01:43:07;;;;;;;3.00;2.40;;;;;;;;;;5033201;28;20045;-75
2023/06/27 01:45:35;;;;;;;3.58;2.78;;;;;;;;;;5033307;28;20045;-74
2023/06/27 01:48:01;;;;;;;4.43;2.88;;;;;;;;;;5032446;28;20046;-75
2023/06/27 01:50:27;;;;;;;3.95;2.80;;;;;;;;;;5032777;28;20482;-75
2023/06/27 01:52:54;;;;;;;3.80;2.72;;;;;;;;;;5032086;28;20293;-74
2023/06/27 01:55:20;;;;;;;6.07;3.28;;;;;;;;;;5032585;28;20057;-74
2023/06/27 01:57:46;;;;;;;3.45;3.15;;;;;;;;;;5032778;28;20049;-74
2023/06/27 02:00:12;;;;;;;4.35;2.92;;;;;;;;;;5032069;28;20045;-75
2023/06/27 02:02:38;;;;;;;3.05;2.70;;;;;;;;;;5033018;28;20053;-75
2023/06/27 02:05:04;;;;;;;6.03;3.35;;;;;;;;;;5032861;28;20081;-74
2023/06/27 02:07:30;;;;;;;3.10;2.80;;;;;;;;;;4999360;28;20049;-75
2023/06/27 02:09:56;;;;;;;5.28;3.55;;;;;;;;;;5031823;28;20049;-74
2023/06/27 02:12:23;;;;;;;6.15;3.20;;;;;;;;;;5031985;28;20053;-74
2023/06/27 02:14:49;;;;;;;4.80;3.10;;;;;;;;;;5035204;28;20053;-75
2023/06/27 02:17:15;;;;;;;4.15;2.92;;;;;;;;;;5036378;28;20045;-74
2023/06/27 02:19:41;;;;;;;6.60;3.38;;;;;;;;;;5035165;28;20076;-74
2023/06/27 02:22:07;;;;;;;3.40;3.10;;;;;;;;;;5035343;28;20046;-75
2023/06/27 02:24:33;;;;;;;5.50;3.60;;;;;;;;;;5036101;28;20095;-74
2023/06/27 02:26:59;;;;;;;4.03;3.10;;;;;;;;;;5018686;28;20042;-74
2023/06/27 02:29:25;;;;;;;7.78;3.92;;;;;;;;;;5034907;28;20053;-74
2023/06/27 02:31:51;;;;;;;6.47;3.53;;;;;;;;;;5036054;28;20054;-74
2023/06/27 02:34:17;;;;;;;3.58;3.15;;;;;;;;;;5019404;28;20045;-74
2023/06/27 02:36:43;;;;;;;3.50;3.17;;;;;;;;;;5036049;28;20081;-74
2023/06/27 02:39:09;;;;;;;3.55;3.20;;;;;;;;;;5035059;28;20046;-74
2023/06/27 02:41:35;;;;;;;4.30;3.40;;;;;;;;;;5035188;28;20100;-74
2023/06/27 02:44:01;;;;;;;4.05;3.20;;;;;;;;;;5035664;28;20054;-75
2023/06/27 02:46:27;;;;;;;4.10;3.22;;;;;;;;;;5035732;28;20394;-74
2023/06/27 02:48:53;;;;;;;4.38;3.00;;;;;;;;;;5036569;28;20080;-75
2023/06/27 02:51:21;;;;;;;2.90;2.70;;;;;;;;;;5036595;28;20045;-74
2023/06/27 02:53:47;;;;;;;6.10;3.53;;;;;;;;;;5035739;28;20091;-74
2023/06/27 02:56:13;;;;;;;3.33;3.05;;;;;;;;;;5036416;28;20045;-74
2023/06/27 02:58:39;;;;;;;7.45;3.45;;;;;;;;;;5035205;28;20133;-74
2023/06/27 03:01:08;;;;;;;3.63;3.33;;;;;;;;;;5034662;28;20053;-74
2023/06/27 03:03:34;;;;;;;5.55;3.30;;;;;;;;;;5035491;28;20064;-74
2023/06/27 03:06:03;;;;;;;7.88;3.15;;;;;;;;;;5035476;28;20037;-74
2023/06/27 03:08:31;;;;;;;7.68;3.28;;;;;;;;;;5035403;28;20049;-74
2023/06/27 03:10:57;;;;;;;3.83;3.50;;;;;;;;;;5035422;28;20370;-74
2023/06/27 03:13:23;;;;;;;6.82;4.10;;;;;;;;;;5035399;28;20092;-74
2023/06/27 03:15:49;;;;;;;4.75;3.45;;;;;;;;;;5035144;28;20346;-74
2023/06/27 03:18:15;;;;;;;5.20;3.83;;;;;;;;;;5035079;28;20050;-74
2023/06/27 03:20:41;;;;;;;4.30;3.20;;;;;;;;;;5035800;28;20143;-74
2023/06/27 03:23:07;;;;;;;6.38;3.53;;;;;;;;;;5034186;28;20512;-74
2023/06/27 03:25:33;;;;;;;3.70;3.38;;;;;;;;;;5034360;28;20053;-74
2023/06/27 03:28:01;;;;;;;5.30;3.22;;;;;;;;;;5017640;28;20073;-74
2023/06/27 03:30:27;;;;;;;4.38;2.80;;;;;;;;;;5034312;28;20073;-74
2023/06/27 03:32:53;;;;;;;4.35;3.90;;;;;;;;;;5034802;28;20049;-74
2023/06/27 03:35:19;;;;;;;4.30;3.53;;;;;;;;;;5035704;28;20394;-74
2023/06/27 03:37:45;;;;;;;6.63;4.15;;;;;;;;;;5034907;28;20045;-74
2023/06/27 03:40:11;;;;;;;6.03;3.55;;;;;;;;;;5035355;28;20056;-74
2023/06/27 03:42:37;;;;;;;5.53;3.75;;;;;;;;;;5034765;28;20046;-74
2023/06/27 03:45:04;;;;;;;3.75;3.45;;;;;;;;;;5033675;28;20049;-75
2023/06/27 03:47:30;;;;;;;6.40;4.22;;;;;;;;;;5035172;28;20413;-74
2023/06/27 03:49:56;;;;;;;5.80;3.83;;;;;;;;;;5035182;28;20385;-74
2023/06/27 03:52:22;;;;;;;5.97;4.05;;;;;;;;;;5035423;28;20397;-74
2023/06/27 03:54:48;;;;;;;6.75;3.83;;;;;;;;;;5033614;28;20092;-74
2023/06/27 03:57:15;;;;;;;7.20;4.78;;;;;;;;;;5033525;28;20067;-74
2023/06/27 03:59:41;;;;;;;5.60;4.40;;;;;;;;;;5033748;28;20159;-74
2023/06/27 04:02:07;;;;;;;7.40;4.22;;;;;;;;;;5033426;28;20045;-74
2023/06/27 04:04:33;;;;;;;4.28;3.88;;;;;;;;;;5034222;28;20560;-74
2023/06/27 04:06:59;;;;;;;5.57;4.75;;;;;;;;;;5034025;28;20504;-74
2023/06/27 04:09:25;;;;;;;9.38;4.55;;;;;;;;;;5034738;28;20381;-74
2023/06/27 04:11:51;;;;;;;5.63;4.80;;;;;;;;;;5033569;28;20053;-74
2023/06/27 04:14:17;;;;;;;5.82;4.38;;;;;;;;;;5034192;28;20052;-74
2023/06/27 04:16:44;;;;;;;6.40;5.03;;;;;;;;;;5034749;28;20103;-75
2023/06/27 04:19:10;;;;;;;7.43;5.10;;;;;;;;;;5034162;28;20132;-74
2023/06/27 04:21:36;;;;;;;4.97;4.47;;;;;;;;;;5016586;28;20053;-75
2023/06/27 04:24:02;;;;;;;8.05;4.72;;;;;;;;;;5033310;28;20053;-75
2023/06/27 04:26:28;;;;;;;7.40;5.35;;;;;;;;;;5033714;28;20045;-74
2023/06/27 04:28:55;;;;;;;7.28;5.32;;;;;;;;;;5033191;28;20505;-74
2023/06/27 04:31:21;;;;;;;6.22;5.00;;;;;;;;;;5032740;28;20057;-74
2023/06/27 04:33:47;;;;;;;6.28;5.32;;;;;;;;;;5034403;28;20162;-74
2023/06/27 04:36:20;;;;;;;9.57;5.18;;;;;;;;;;5032905;28;20064;-74
2023/06/27 04:38:48;;;;;;;8.75;5.43;;;;;;;;;;5033125;28;20049;-74
2023/06/27 04:41:14;;;;;;;6.13;5.10;;;;;;;;;;5034414;28;20053;-75
2023/06/27 04:43:40;;;;;;;7.45;5.13;;;;;;;;;;5034528;28;20045;-74
2023/06/27 04:46:06;;;;;;;6.85;5.70;;;;;;;;;;5032225;28;20045;-74
2023/06/27 04:48:32;;;;;;;7.25;5.65;;;;;;;;;;5033689;28;20041;-74
2023/06/27 04:50:58;;;;;;;10.75;6.45;;;;;;;;;;5033668;28;20093;-74
2023/06/27 04:53:25;;;;;;;8.52;6.78;;;;;;;;;;5033547;28;20056;-74
2023/06/27 04:55:51;;;;;;;9.10;6.22;;;;;;;;;;5032632;28;20061;-75
2023/06/27 04:58:18;;;;;;;10.73;7.13;;;;;;;;;;5032120;28;20493;-74
2023/06/27 05:00:47;;;;;;;7.53;6.72;;;;;;;;;;5033632;28;20076;-75
2023/06/27 05:03:13;;;;;;;7.70;6.90;;;;;;;;;;5032566;28;20493;-74
2023/06/27 05:05:39;;;;;;;10.30;6.82;;;;;;;;;;5033471;28;20049;-75
2023/06/27 05:08:06;;;;;;;9.30;7.72;;;;;;;;;;5032489;28;20434;-74
2023/06/27 05:10:32;;;;;;;8.63;7.75;;;;;;;;;;5033509;28;20107;-75
2023/06/27 05:12:58;;;;;;;9.80;7.53;;;;;;;;;;5033312;28;20057;-74
2023/06/27 05:15:25;;;;;;;9.77;7.38;;;;;;;;;;5016236;28;20056;-75
2023/06/27 05:17:55;;;;;;;8.90;7.15;;;;;;;;;;5033359;28;20111;-74
2023/06/27 05:20:22;;;;;;;7.93;6.88;;;;;;;;;;5032100;28;20397;-74
2023/06/27 05:22:48;;;;;;;7.97;6.95;;;;;;;;;;5032668;28;20041;-74
2023/06/27 05:25:14;;;;;;;8.43;7.50;;;;;;;;;;5015585;28;20103;-75
2023/06/27 05:27:40;;;;;;;7.50;6.80;;;;;;;;;;5032083;28;20053;-74
2023/06/27 05:30:07;;;;;;;11.88;7.43;;;;;;;;;;5033735;28;20051;-74
2023/06/27 05:32:33;;;;;;;9.50;7.57;;;;;;;;;;5032858;28;20494;-74
2023/06/27 05:34:59;;;;;;;12.90;8.13;;;;;;;;;;5033399;28;20485;-74
2023/06/27 05:37:25;;;;;;;9.38;6.28;;;;;;;;;;5032907;28;20103;-74
2023/06/27 05:39:51;;;;;;;7.22;6.63;;;;;;;;;;5032956;28;20072;-74
2023/06/27 05:42:17;;;;;;;11.48;6.60;;;;;;;;;;5032992;28;20056;-74
2023/06/27 05:44:43;;;;;;;7.32;6.60;;;;;;;;;;5032768;28;20077;-75
2023/06/27 05:47:09;;;;;;;7.15;6.13;;;;;;;;;;5033830;28;20445;-74
2023/06/27 05:49:35;;;;;;;6.28;5.47;;;;;;;;;;5035657;28;20050;-75
2023/06/27 05:52:01;;;;;;;6.85;4.97;;;;;;;;;;5035827;28;20050;-74
2023/06/27 05:54:27;;;;;;;10.10;5.72;;;;;;;;;;5035756;28;20049;-75
2023/06/27 05:56:53;;;;;;;8.13;4.90;;;;;;;;;;5036619;28;20092;-75
2023/06/27 05:59:20;;;;;;;6.63;4.80;;;;;;;;;;5036626;28;20386;-75
2023/06/27 06:01:49;;;;;;;7.53;3.90;;;;;;;;;;5037721;28;20048;-75
2023/06/27 06:04:15;;;;;;;6.47;4.40;;;;;;;;;;5035451;28;20133;-75
2023/06/27 06:06:41;;;;;;;5.90;4.25;;;;;;;;;;5035590;28;20049;-75
2023/06/27 06:09:08;;;;;;;8.73;4.18;;;;;;;;;;5035454;28;20485;-75
2023/06/27 06:11:34;;;;;;;5.15;3.72;;;;;;;;;;5036324;28;20085;-75
2023/06/27 06:14:04;;;;;;;9.50;4.03;;;;;;;;;;5035090;28;20057;-74
2023/06/27 06:16:32;;;;;;;6.25;3.47;;;;;;;;;;5035341;28;20132;-75
2023/06/27 06:18:59;;;;;;;7.43;3.85;;;;;;;;;;5035251;28;20052;-74
2023/06/27 06:21:25;;;;;;;5.05;3.30;;;;;;;;;;5036079;28;20049;-75
2023/06/27 06:23:51;;;;;;;6.20;3.05;;;;;;;;;;5034877;28;20046;-74
2023/06/27 06:26:17;;;;;;;4.68;2.97;;;;;;;;;;5034458;28;20143;-75
2023/06/27 06:28:43;;;;;;;7.88;3.42;;;;;;;;;;5036092;28;20053;-74
2023/06/27 06:31:14;;;;;;;6.28;2.70;;;;;;;;;;5035690;28;20049;-74
2023/06/27 06:33:41;;;;;;;2.58;2.35;;;;;;;;;;5036515;28;20092;-75
2023/06/27 06:36:07;;;;;;;4.43;1.75;;;;;;;;;;5036105;28;20538;-75
2023/06/27 06:38:33;;;;;;;4.13;1.23;;;;;;;;;;5035044;28;20060;-74
2023/06/27 06:40:59;;;;;;;5.00;1.83;;;;;;;;;;5034869;28;20132;-75
2023/06/27 06:43:26;;;;;;;4.28;1.10;;;;;;;;;;5036283;28;20060;-75
2023/06/27 06:45:55;;;;;;;3.85;1.10;;;;;;;;;;5035299;28;20554;-74
2023/06/27 06:48:21;;;;;;;6.45;0.85;;;;;;;;;;5036034;28;20107;-75
2023/06/27 06:50:50;;;;;;;5.07;0.80;;;;;;;;;;5035610;28;20045;-75
2023/06/27 06:53:16;;;;;;;3.15;0.60;;;;;;;;;;5018269;28;20057;-75
2023/06/27 06:55:42;;;;;;;3.55;0.93;;;;;;;;;;5035700;28;20038;-75
2023/06/27 06:58:08;;;;;;;1.58;0.40;;;;;;;;;;5035627;28;20045;-75
2023/06/27 07:00:34;;;;;;;3.75;0.45;;;;;;;;;;5033545;28;20520;-75
2023/06/27 07:03:00;;;;;;;1.73;0.30;;;;;;;;;;5035384;28;20049;-75
2023/06/27 07:05:26;;;;;;;3.72;0.55;;;;;;;;;;5034297;28;20048;-75
2023/06/27 07:07:52;;;;;;;2.88;0.30;;;;;;;;;;5035845;28;20049;-75
2023/06/27 07:10:18;;;;;;;2.03;0.35;;;;;;;;;;5034246;28;20043;-75
2023/06/27 07:12:44;;;;;;;2.90;0.40;;;;;;;;;;5035240;28;20045;-75
2023/06/27 07:15:10;;;;;;;2.55;0.20;;;;;;;;;;5035255;28;20081;-75
2023/06/27 07:17:36;;;;;;;2.78;0.30;;;;;;;;;;5034431;28;20497;-75
2023/06/27 07:20:04;;;;;;;4.50;0.50;;;;;;;;;;5034958;28;20045;-74
2023/06/27 07:22:30;;;;;;;1.77;0.20;;;;;;;;;;5017399;28;20143;-74
2023/06/27 07:24:56;;;;;;;2.15;0.20;;;;;;;;;;5033435;28;20061;-75
2023/06/27 07:27:22;;;;;;;2.65;0.20;;;;;;;;;;5035334;28;20136;-78
2023/06/27 07:29:48;;;;;;;2.17;0.30;;;;;;;;;;5034814;28;20049;-76
2023/06/27 07:32:14;;;;;;;1.52;0.30;;;;;;;;;;5033591;28;20570;-75
2023/06/27 07:34:40;;;;;;;5.13;0.32;;;;;;;;;;5034847;28;20037;-74
2023/06/27 07:37:07;;;;;;;2.58;0.57;;;;;;;;;;5034971;28;20095;-75
2023/06/27 07:39:33;;;;;;;2.75;0.22;;;;;;;;;;5034480;28;20517;-75
2023/06/27 07:41:59;;;;;;;2.00;0.30;;;;;;;;;;5034617;28;20080;-74
2023/06/27 07:44:25;;;;;;;1.55;0.20;;;;;;;;;;5034180;28;20051;-75
2023/06/27 07:46:51;;;;;;;2.35;0.10;;;;;;;;;;5033671;28;20056;-74
2023/06/27 07:49:18;;;;;;;1.05;0.20;;;;;;;;;;5034495;28;20045;-75
2023/06/27 07:51:49;;;;;;;1.77;0.30;;;;;;;;;;5033562;28;20045;-75
2023/06/27 07:54:15;;;;;;;2.97;0.20;;;;;;;;;;5035007;28;20102;-75
2023/06/27 07:56:41;;;;;;;1.50;0.20;;;;;;;;;;5034640;28;20041;-75
2023/06/27 07:59:08;;;;;;;4.68;0.60;;;;;;;;;;5034421;28;20046;-74
2023/06/27 08:01:35;;;;;;;2.65;0.20;;;;;;;;;;5034348;28;20088;-75
2023/06/27 08:04:01;;;;;;;0.98;0.20;;;;;;;;;;5034386;28;20057;-74
2023/06/27 08:06:27;;;;;;;1.98;0.30;;;;;;;;;;5032736;28;20120;-74
2023/06/27 08:08:53;;;;;;;2.05;0.20;;;;;;;;;;5033389;28;20045;-74
2023/06/27 08:11:21;;;;;;;2.85;0.28;;;;;;;;;;5033000;28;20496;-75
2023/06/27 08:13:48;;;;;;;3.72;0.20;;;;;;;;;;5034068;28;20444;-74
2023/06/27 08:16:14;;;;;;;1.98;0.20;;;;;;;;;;5034078;28;20091;-75
2023/06/27 08:18:40;;;;;;;3.85;0.20;;;;;;;;;;5017334;28;20132;-75
2023/06/27 08:21:06;;;;;;;1.70;0.20;;;;;;;;;;5033906;28;20107;-74
2023/06/27 08:23:32;;;;;;;0.98;0.20;;;;;;;;;;5034044;28;20063;-74
2023/06/27 08:25:59;;;;;;;2.05;0.20;;;;;;;;;;5032757;28;20115;-74
2023/06/27 08:28:25;;;;;;;4.05;0.10;;;;;;;;;;5033928;28;20052;-74
2023/06/27 08:30:51;;;;;;;2.65;0.25;;;;;;;;;;5033038;28;20038;-74
2023/06/27 08:33:17;;;;;;;1.48;0.13;;;;;;;;;;5033646;28;20473;-75
2023/06/27 08:35:43;;;;;;;2.55;0.20;;;;;;;;;;5032703;28;20496;-74
2023/06/27 08:38:10;;;;;;;3.53;0.20;;;;;;;;;;5034661;28;20045;-75
2023/06/27 08:40:36;;;;;;;2.08;0.20;;;;;;;;;;5033932;28;20053;-75
2023/06/27 08:43:05;;;;;;;1.90;0.22;;;;;;;;;;5033737;28;20041;-75
2023/06/27 08:45:31;;;;;;;2.75;0.30;;;;;;;;;;5032499;28;20037;-75
2023/06/27 08:47:58;;;;;;;2.30;0.20;;;;;;;;;;5033694;28;20041;-75
2023/06/27 08:50:26;;;;;;;1.77;0.40;;;;;;;;;;5033371;28;20517;-74
2023/06/27 08:52:53;;;;;;;2.10;0.10;;;;;;;;;;5034192;28;20048;-75
2023/06/27 08:55:23;;;;;;;2.40;0.30;;;;;;;;;;5033456;28;20041;-75
2023/06/27 08:57:49;;;;;;;3.03;0.20;;;;;;;;;;5033536;28;20045;-75
2023/06/27 09:00:19;;;;;;;3.75;0.25;;;;;;;;;;5032023;28;20038;-75
2023/06/27 09:02:46;;;;;;;2.97;0.20;;;;;;;;;;5033522;28;20049;-75
2023/06/27 09:05:12;;;;;;;0.98;0.20;;;;;;;;;;5015729;28;20077;-76
2023/06/27 09:07:38;;;;;;;2.50;0.28;;;;;;;;;;5032808;28;20496;-75
2023/06/27 09:10:04;;;;;;;3.63;0.82;;;;;;;;;;5032404;28;20041;-75
2023/06/27 09:12:31;;;;;;;3.25;0.22;;;;;;;;;;5032789;28;20040;-75
2023/06/27 09:14:57;;;;;;;2.08;0.20;;;;;;;;;;5032482;28;20080;-75
2023/06/27 09:17:24;;;;;;;0.90;0.20;;;;;;;;;;5033965;28;20049;-75
2023/06/27 09:19:50;;;;;;;2.88;0.50;;;;;;;;;;5015630;28;20053;-75
2023/06/27 09:22:18;;;;;;;1.75;0.30;;;;;;;;;;5033443;28;20046;-75
2023/06/27 09:24:44;;;;;;;1.67;0.20;;;;;;;;;;5034307;28;20065;-77
2023/06/27 09:27:31;;;;;;;2.85;0.20;;;;;;;;;;5037250;28;20050;-76
2023/06/27 09:30:02;;;;;;;2.25;0.20;;;;;;;;;;5037255;28;20056;-75
2023/06/27 09:32:28;;;;;;;0.85;0.13;;;;;;;;;;5036237;28;20113;-75
2023/06/27 09:34:54;;;;;;;1.63;0.20;;;;;;;;;;5037145;28;20041;-75
2023/06/27 09:37:20;;;;;;;1.40;0.10;;;;;;;;;;5037429;28;20049;-75
2023/06/27 09:39:47;;;;;;;2.45;0.20;;;;;;;;;;5035840;28;20528;-76
2023/06/27 09:42:13;;;;;;;1.75;0.30;;;;;;;;;;5036955;28;20046;-76
2023/06/27 09:44:39;;;;;;;1.05;0.10;;;;;;;;;;5019141;28;20057;-76
2023/06/27 09:47:10;;;;;;;2.00;0.20;;;;;;;;;;5036096;28;20081;-76
2023/06/27 09:49:41;;;;;;;3.20;0.20;;;;;;;;;;5035736;28;20485;-77
2023/06/27 09:52:08;;;;;;;1.40;0.10;;;;;;;;;;5036057;28;20057;-78
2023/06/27 09:54:41;;;;;;;1.02;0.10;;;;;;;;;;5035877;28;20053;-75
2023/06/27 09:57:12;;;;;;;2.83;0.20;;;;;;;;;;5036006;28;20057;-76
2023/06/27 09:59:39;;;;;;;1.67;0.20;;;;;;;;;;5036400;28;20490;-75
2023/06/27 10:02:11;;;;;;;1.92;0.10;;;;;;;;;;5035593;28;20046;-76
2023/06/27 10:04:37;;;;;;;3.03;0.20;;;;;;;;;;5035885;28;20385;-78
2023/06/27 10:07:04;;;;;;;2.50;0.20;;;;;;;;;;5035460;28;20045;-75
2023/06/27 10:09:30;;;;;;;3.03;0.20;;;;;;;;;;5036274;28;20045;-76
2023/06/27 10:11:56;;;;;;;1.83;0.20;;;;;;;;;;5035584;28;20099;-76
2023/06/27 10:14:22;;;;;;;1.15;0.20;;;;;;;;;;5037041;28;20060;-76
2023/06/27 10:16:48;;;;;;;1.17;0.20;;;;;;;;;;5035661;28;20045;-76
2023/06/27 10:19:15;;;;;;;2.03;0.20;;;;;;;;;;5035622;28;20054;-76
2023/06/27 10:21:41;;;;;;;1.63;0.20;;;;;;;;;;5035142;28;20051;-76
2023/06/27 10:24:08;;;;;;;3.30;0.20;;;;;;;;;;5018265;28;20057;-76
2023/06/27 10:26:34;;;;;;;1.08;0.20;;;;;;;;;;5035163;28;20049;-76
2023/06/27 10:29:03;;;;;;;2.30;0.10;;;;;;;;;;5018416;28;20077;-76
2023/06/27 10:31:45;;;;;;;2.53;0.17;;;;;;;;;;5035389;28;20068;-76
2023/06/27 10:34:17;;;;;;;1.20;0.30;;;;;;;;;;5034971;28;20049;-76
2023/06/27 10:37:10;;;;;;;2.97;0.20;;;;;;;;;;5035251;28;20053;-75
2023/06/27 10:39:37;;;;;;;2.33;0.20;;;;;;;;;;5033705;28;20064;-76
2023/06/27 10:42:07;;;;;;;2.00;0.20;;;;;;;;;;5035771;28;20133;-76
2023/06/27 10:44:49;;;;;;;1.58;0.20;;;;;;;;;;5034714;28;20045;-75
2023/06/27 10:47:15;;;;;;;1.40;0.10;;;;;;;;;;5035209;28;20057;-76
2023/06/27 10:49:45;;;;;;;1.88;0.20;;;;;;;;;;5034765;28;20448;-76
2023/06/27 10:52:19;;;;;;;3.85;0.20;;;;;;;;;;5035261;28;20544;-76
2023/06/27 10:54:47;;;;;;;1.75;0.20;;;;;;;;;;5035812;28;20401;-77
2023/06/27 10:57:16;;;;;;;0.90;0.20;;;;;;;;;;5034307;28;20053;-76
2023/06/27 10:59:45;;;;;;;2.05;0.17;;;;;;;;;;5034540;28;20056;-76
2023/06/27 11:02:12;;;;;;;1.08;0.10;;;;;;;;;;5018179;28;20081;-75
2023/06/27 11:04:42;;;;;;;1.20;0.10;;;;;;;;;;5034440;28;20053;-76
2023/06/27 11:07:13;;;;;;;1.92;0.15;;;;;;;;;;5017738;28;20164;-77
2023/06/27 11:09:50;;;;;;;1.13;0.20;;;;;;;;;;5034419;28;20458;-76
2023/06/27 11:12:17;;;;;;;0.63;0.10;;;;;;;;;;5035630;28;20470;-76
2023/06/27 11:14:48;;;;;;;1.77;0.10;;;;;;;;;;5034959;28;20056;-76
2023/06/27 11:17:14;;;;;;;0.90;0.20;;;;;;;;;;5034339;28;20057;-76
2023/06/27 11:19:42;;;;;;;1.80;0.20;;;;;;;;;;5034198;28;20049;-77
2023/06/27 11:22:08;;;;;;;1.25;0.20;;;;;;;;;;5034231;28;20060;-76
2023/06/27 11:24:35;;;;;;;2.28;0.35;;;;;;;;;;5033932;28;20064;-76
2023/06/27 11:27:03;;;;;;;1.20;0.20;;;;;;;;;;5034761;28;20088;-76
2023/06/27 11:29:29;;;;;;;1.48;0.20;;;;;;;;;;5034330;28;20094;-76
2023/06/27 11:31:56;;;;;;;0.82;0.20;;;;;;;;;;5033884;28;20049;-76
2023/06/27 11:34:22;;;;;;;2.95;0.20;;;;;;;;;;5034941;28;20049;-77
2023/06/27 11:36:48;;;;;;;1.90;0.32;;;;;;;;;;5034890;28;20041;-77
2023/06/27 11:39:15;;;;;;;2.75;0.10;;;;;;;;;;5034593;28;20127;-77
2023/06/27 11:41:42;;;;;;;2.20;0.20;;;;;;;;;;5033783;28;20473;-77
2023/06/27 11:44:12;;;;;;;2.35;0.20;;;;;;;;;;5018096;28;20056;-77
2023/06/27 11:46:51;;;;;;;3.03;0.30;;;;;;;;;;5000282;28;20393;-76
2023/06/27 11:49:21;;;;;;;2.47;0.20;;;;;;;;;;5017198;28;20409;-76
2023/06/27 11:51:47;;;;;;;2.10;0.10;;;;;;;;;;5034507;28;20099;-76
2023/06/27 11:54:15;;;;;;;0.90;0.10;;;;;;;;;;5034633;28;20053;-76
2023/06/27 11:56:41;;;;;;;2.58;0.30;;;;;;;;;;5033493;28;20064;-77
2023/06/27 11:59:08;;;;;;;1.52;0.20;;;;;;;;;;5034412;28;20136;-76
2023/06/27 12:01:41;;;;;;;1.60;0.30;;;;;;;;;;5033430;28;20055;-76
2023/06/27 12:04:17;;;;;;;2.58;0.17;;;;;;;;;;5034965;28;20451;-76
2023/06/27 12:06:44;;;;;;;0.90;0.20;;;;;;;;;;5016652;28;20110;-77
2023/06/27 12:09:21;;;;;;;0.80;0.17;;;;;;;;;;5033486;28;20088;-77
2023/06/27 12:11:51;;;;;;;2.28;0.20;;;;;;;;;;5034096;28;20547;-77
2023/06/27 12:14:21;;;;;;;2.03;0.20;;;;;;;;;;5033790;28;20477;-76
2023/06/27 12:16:48;;;;;;;2.08;0.20;;;;;;;;;;5034049;28;20049;-76
2023/06/27 12:19:15;;;;;;;1.25;0.10;;;;;;;;;;5016724;28;20528;-76
2023/06/27 12:21:42;;;;;;;1.30;0.20;;;;;;;;;;5033283;28;20064;-76
2023/06/27 12:24:08;;;;;;;1.92;0.20;;;;;;;;;;5033938;28;20057;-77
2023/06/27 12:26:34;;;;;;;2.05;0.20;;;;;;;;;;5033536;28;20531;-77
2023/06/27 12:29:02;;;;;;;1.33;0.10;;;;;;;;;;5032953;28;20464;-76
2023/06/27 12:31:28;;;;;;;2.30;0.20;;;;;;;;;;5032966;28;20048;-76
2023/06/27 12:33:55;;;;;;;2.00;0.20;;;;;;;;;;5032496;28;20049;-78
2023/06/27 12:36:22;;;;;;;3.10;0.35;;;;;;;;;;5016982;28;20178;-77
2023/06/27 12:38:53;;;;;;;1.23;0.17;;;;;;;;;;5016275;28;20053;-76
2023/06/27 12:41:20;;;;;;;1.92;0.20;;;;;;;;;;5033062;28;20063;-76
2023/06/27 12:43:46;;;;;;;2.00;0.20;;;;;;;;;;5033467;28;20041;-76
2023/06/27 12:46:13;;;;;;;3.13;0.20;;;;;;;;;;5033709;28;20041;-76
2023/06/27 12:48:39;;;;;;;1.80;0.20;;;;;;;;;;5016999;28;20057;-76
2023/06/27 12:51:05;;;;;;;0.85;0.10;;;;;;;;;;5032392;28;20053;-76
2023/06/27 12:53:33;;;;;;;2.70;0.20;;;;;;;;;;5032712;28;20084;-76
2023/06/27 12:55:59;;;;;;;2.33;0.20;;;;;;;;;;5033624;28;20064;-76
2023/06/27 12:58:26;;;;;;;2.47;0.20;;;;;;;;;;5032666;28;20092;-76
2023/06/27 13:00:54;;;;;;;1.10;0.10;;;;;;;;;;5032206;28;20514;-76
2023/06/27 13:03:20;;;;;;;4.30;0.22;;;;;;;;;;5032278;28;20159;-77
2023/06/27 13:05:46;;;;;;;2.40;0.22;;;;;;;;;;5015948;28;20133;-77
2023/06/27 13:08:13;;;;;;;4.30;0.25;;;;;;;;;;5033528;28;20436;-77
2023/06/27 13:10:39;;;;;;;1.17;0.20;;;;;;;;;;5032252;28;20056;-77
2023/06/27 13:13:05;;;;;;;1.35;0.20;;;;;;;;;;5033399;28;20095;-77
2023/06/27 13:15:31;;;;;;;0.60;0.10;;;;;;;;;;5032712;28;20046;-77
2023/06/27 13:17:57;;;;;;;2.55;0.20;;;;;;;;;;5032145;28;20053;-78
2023/06/27 13:20:25;;;;;;;2.33;0.20;;;;;;;;;;5032404;28;20423;-77
2023/06/27 13:22:51;;;;;;;4.70;0.30;;;;;;;;;;5032356;28;20056;-76
2023/06/27 13:25:17;;;;;;;3.45;0.17;;;;;;;;;;5031954;28;20512;-77
2023/06/27 13:27:44;;;;;;;2.78;0.10;;;;;;;;;;5032489;28;20402;-76
2023/06/27 13:30:10;;;;;;;2.17;0.17;;;;;;;;;;5016694;28;20139;-77
2023/06/27 13:32:36;;;;;;;2.35;0.10;;;;;;;;;;5032307;28;20111;-76
2023/06/27 13:35:02;;;;;;;1.63;0.20;;;;;;;;;;4999629;28;20132;-77
2023/06/27 13:37:28;;;;;;;2.17;0.20;;;;;;;;;;5032510;28;20050;-77
2023/06/27 13:39:55;;;;;;;1.85;0.20;;;;;;;;;;5033306;28;20053;-76
2023/06/27 13:42:21;;;;;;;1.23;0.20;;;;;;;;;;5016094;28;20543;-76
2023/06/27 13:44:47;;;;;;;2.78;0.20;;;;;;;;;;5033142;28;20100;-77
2023/06/27 13:47:13;;;;;;;1.25;0.20;;;;;;;;;;5032899;28;20041;-76
2023/06/27 13:49:40;;;;;;;1.50;0.20;;;;;;;;;;5032150;28;20052;-76
2023/06/27 13:52:06;;;;;;;2.25;0.20;;;;;;;;;;5016239;28;20041;-76
2023/06/27 13:54:33;;;;;;;1.58;0.20;;;;;;;;;;5031777;28;20409;-76
2023/06/27 13:56:59;;;;;;;1.75;0.43;;;;;;;;;;5032943;28;20382;-76
2023/06/27 13:59:25;;;;;;;1.73;0.20;;;;;;;;;;5032319;28;20054;-76
2023/06/27 14:01:54;;;;;;;1.20;0.20;;;;;;;;;;5033614;28;20171;-77
2023/06/27 14:04:20;;;;;;;0.70;0.10;;;;;;;;;;5032340;28;20042;-77
2023/06/27 14:06:51;;;;;;;2.15;0.20;;;;;;;;;;5031665;28;20050;-77
2023/06/27 14:09:18;;;;;;;4.10;0.25;;;;;;;;;;5032873;28;20045;-76
2023/06/27 14:11:44;;;;;;;2.30;0.20;;;;;;;;;;5036802;28;20050;-76
2023/06/27 14:14:11;;;;;;;2.80;0.30;;;;;;;;;;5035546;28;20552;-76
2023/06/27 14:16:37;;;;;;;1.05;0.20;;;;;;;;;;5036493;28;20045;-76
2023/06/27 14:19:06;;;;;;;2.95;0.20;;;;;;;;;;5036387;28;20141;-76
2023/06/27 14:21:34;;;;;;;2.50;0.20;;;;;;;;;;5035690;28;20207;-77
2023/06/27 14:24:01;;;;;;;1.02;0.20;;;;;;;;;;5018955;28;20107;-76
2023/06/27 14:26:27;;;;;;;1.63;0.20;;;;;;;;;;5002477;28;20057;-76
2023/06/27 14:28:53;;;;;;;1.98;0.20;;;;;;;;;;5036663;28;20053;-76
2023/06/27 14:31:19;;;;;;;2.42;0.20;;;;;;;;;;5035145;28;20068;-76
2023/06/27 14:33:45;;;;;;;2.25;0.30;;;;;;;;;;5035215;28;20053;-77
2023/06/27 14:36:11;;;;;;;1.23;0.40;;;;;;;;;;5036041;28;20050;-76
2023/06/27 14:38:37;;;;;;;3.13;0.28;;;;;;;;;;5034730;28;20060;-76
2023/06/27 14:41:03;;;;;;;1.67;0.20;;;;;;;;;;5035031;28;20611;-77
2023/06/27 14:43:30;;;;;;;1.15;0.20;;;;;;;;;;5018522;28;20041;-76